Time;durP1;ratioP1;P1;durP2;ratioP2;P2;SDS_P1;SDS_P2;PMS_P1;PMS_P2;Temp;Humidity;BMP_temperature;BMP_pressure;BME280_temperature;BME280_humidity;BME280_pressure;Samples;Min_cycle;Max_cycle;Signal;HPM_P1;HPM_P2
2023/12/05 00:03:25;;;;;;;28.45;17.23;;;;;;;6.86;100.00;100763.69;10460073;28;20075;-67
2023/12/05 00:08:26;;;;;;;24.15;16.25;;;;;;;6.84;100.00;100788.56;10460279;28;20124;-67
2023/12/05 00:13:26;;;;;;;21.33;14.25;;;;;;;6.77;100.00;100814.66;10459242;28;20041;-67
2023/12/05 00:18:27;;;;;;;24.85;14.93;;;;;;;6.59;100.00;100825.00;10459781;28;20041;-67
2023/12/05 00:23:28;;;;;;;18.10;13.52;;;;;;;6.08;100.00;100770.38;10460001;28;20057;-67
2023/12/05 00:28:29;;;;;;;21.85;14.38;;;;;;;6.46;100.00;100840.22;10457827;28;20045;-67
2023/12/05 00:33:30;;;;;;;22.40;14.65;;;;;;;6.46;100.00;100860.47;10459216;28;20489;-67
2023/12/05 00:38:31;;;;;;;18.23;12.40;;;;;;;6.19;100.00;100835.41;10458978;28;20037;-67
2023/12/05 00:43:31;;;;;;;17.55;12.52;;;;;;;6.36;100.00;100887.63;10458925;28;20455;-67
2023/12/05 00:48:32;;;;;;;19.38;12.30;;;;;;;6.15;100.00;100895.50;10458009;28;20048;-67
2023/12/05 00:53:33;;;;;;;18.15;11.75;;;;;;;6.06;100.00;100904.16;10458308;28;20040;-67
2023/12/05 00:58:34;;;;;;;17.67;10.80;;;;;;;5.79;100.00;100888.75;10457769;28;20432;-67
2023/12/05 01:03:35;;;;;;;28.08;14.02;;;;;;;6.15;100.00;100952.72;10457505;28;20571;-67
2023/12/05 01:08:35;;;;;;;13.40;9.38;;;;;;;5.75;100.00;100908.44;10458950;28;20068;-67
2023/12/05 01:13:36;;;;;;;10.27;6.88;;;;;;;5.63;100.00;100920.78;10457084;28;20073;-67
2023/12/05 01:18:37;;;;;;;10.93;7.93;;;;;;;5.89;100.00;100995.19;10456798;28;20048;-67
2023/12/05 01:23:38;;;;;;;9.95;6.60;;;;;;;5.87;100.00;101012.91;10457361;28;20144;-67
2023/12/05 01:28:39;;;;;;;8.73;6.00;;;;;;;5.69;100.00;101017.00;10457999;28;20135;-67
2023/12/05 01:33:40;;;;;;;6.78;5.30;;;;;;;5.68;100.00;101045.16;10455037;28;20052;-67
2023/12/05 01:38:40;;;;;;;6.10;3.33;;;;;;;5.57;100.00;101042.50;10456670;28;20511;-67
2023/12/05 01:43:41;;;;;;;4.28;2.97;;;;;;;5.01;100.00;101013.44;10443824;28;20087;-68
2023/12/05 01:48:44;;;;;;;3.15;2.10;;;;;;;4.98;100.00;101061.88;10456322;28;20132;-68
2023/12/05 01:53:45;;;;;;;2.92;1.65;;;;;;;4.93;100.00;101105.31;10456230;28;20044;-66
2023/12/05 01:58:46;;;;;;;2.72;1.58;;;;;;;4.87;100.00;101117.13;10455814;28;20132;-67
2023/12/05 02:03:49;;;;;;;2.13;1.35;;;;;;;4.47;100.00;101070.03;10455172;28;20462;-67
2023/12/05 02:08:52;;;;;;;2.95;1.50;;;;;;;4.64;100.00;101121.44;10433492;28;20045;-67
2023/12/05 02:13:53;;;;;;;6.40;3.97;;;;;;;4.67;100.00;101136.19;10417596;28;20045;-67
2023/12/05 02:19:05;;;;;;;4.30;2.58;;;;;;;4.66;100.00;101116.06;10413888;28;20041;-67
2023/12/05 02:24:25;;;;;;;2.95;1.75;;;;;;;4.59;100.00;101118.31;10435794;28;20615;-67
2023/12/05 02:29:26;;;;;;;2.75;1.73;;;;;;;4.10;100.00;101067.41;10454757;28;20041;-67
2023/12/05 02:34:27;;;;;;;3.55;2.40;;;;;;;4.48;100.00;101155.88;10453275;28;20044;-67
2023/12/05 02:39:54;;;;;;;2.03;1.20;;;;;;;4.46;100.00;101176.22;10440610;28;20044;-67
2023/12/05 02:44:57;;;;;;;2.08;1.20;;;;;;;4.40;100.00;101170.53;10454372;28;20044;-67
2023/12/05 02:49:58;;;;;;;2.28;1.13;;;;;;;4.46;100.00;101183.28;10429338;28;20048;-68
2023/12/05 02:54:59;;;;;;;2.45;1.42;;;;;;;4.27;100.00;101152.16;10447227;28;20055;-68
2023/12/05 02:59:59;;;;;;;4.75;2.90;;;;;;;4.47;100.00;101211.25;10445758;28;20428;-68
2023/12/05 03:05:00;;;;;;;3.05;1.50;;;;;;;4.40;100.00;101228.41;10450879;28;20106;-67
2023/12/05 03:10:01;;;;;;;3.38;1.38;;;;;;;4.30;100.00;101244.81;10447202;28;20091;-68
2023/12/05 03:15:03;;;;;;;1.58;0.90;;;;;;;4.21;100.00;101242.81;10447507;28;20128;-67
2023/12/05 03:20:04;;;;;;;2.38;1.50;;;;;;;4.06;100.00;101252.59;10448380;28;20137;-67
2023/12/05 03:25:06;;;;;;;3.00;1.10;;;;;;;4.04;100.00;101267.66;10446654;28;20057;-67
2023/12/05 03:30:08;;;;;;;4.88;1.38;;;;;;;3.98;100.00;101285.59;10452208;28;20501;-66
2023/12/05 03:35:09;;;;;;;6.70;1.83;;;;;;;3.98;100.00;101307.50;10456328;28;20041;-66
2023/12/05 03:40:10;;;;;;;2.63;1.67;;;;;;;3.90;100.00;101304.53;10460668;28;20033;-66
2023/12/05 03:45:11;;;;;;;3.25;1.75;;;;;;;3.83;100.00;101292.75;10458479;28;20052;-66
2023/12/05 03:50:12;;;;;;;4.75;2.00;;;;;;;3.86;100.00;101334.59;10460450;28;20037;-64
2023/12/05 03:55:12;;;;;;;3.15;1.90;;;;;;;3.58;100.00;101304.00;10459726;28;20135;-63
2023/12/05 04:00:14;;;;;;;3.20;2.00;;;;;;;3.80;100.00;101356.00;10460945;28;20402;-65
2023/12/05 04:05:15;;;;;;;3.78;2.17;;;;;;;3.72;100.00;101360.94;10460056;28;20512;-63
2023/12/05 04:10:16;;;;;;;2.80;1.90;;;;;;;3.77;100.00;101364.97;10460192;28;20041;-65
2023/12/05 04:15:16;;;;;;;4.70;2.63;;;;;;;3.75;100.00;101379.13;10459808;28;20051;-63
2023/12/05 04:20:17;;;;;;;7.10;4.07;;;;;;;3.64;100.00;101366.66;10459601;28;20044;-63
2023/12/05 04:25:18;;;;;;;3.55;2.20;;;;;;;3.57;100.00;101382.00;10458184;28;20053;-64
2023/12/05 04:30:19;;;;;;;3.97;2.85;;;;;;;3.54;100.00;101415.50;10458770;28;20047;-65
2023/12/05 04:35:20;;;;;;;5.88;3.70;;;;;;;3.15;100.00;101364.53;10458569;28;20049;-65
2023/12/05 04:40:20;;;;;;;4.95;3.22;;;;;;;3.26;100.00;101408.47;10459455;28;20139;-65
2023/12/05 04:45:21;;;;;;;5.57;4.00;;;;;;;3.36;100.00;101417.50;10457852;28;20071;-65
2023/12/05 04:50:22;;;;;;;6.75;4.43;;;;;;;3.01;100.00;101370.59;10457837;28;20048;-65
2023/12/05 04:55:23;;;;;;;5.85;4.25;;;;;;;3.34;100.00;101430.69;10440211;28;20049;-64
2023/12/05 05:00:23;;;;;;;9.50;6.10;;;;;;;3.02;100.00;101393.31;10458015;28;20067;-64
2023/12/05 05:05:24;;;;;;;5.70;3.78;;;;;;;2.83;100.00;101364.69;10457805;28;20070;-64
2023/12/05 05:10:25;;;;;;;4.47;3.17;;;;;;;3.00;100.00;101412.72;10457923;28;20037;-64
2023/12/05 05:15:26;;;;;;;8.20;5.35;;;;;;;3.41;100.00;101489.81;10457143;28;20128;-65
2023/12/05 05:20:26;;;;;;;6.43;4.20;;;;;;;3.45;100.00;101493.09;10456721;28;20524;-64
2023/12/05 05:25:27;;;;;;;6.43;4.88;;;;;;;3.47;100.00;101496.47;10458022;28;20139;-64
2023/12/05 05:30:28;;;;;;;9.43;6.43;;;;;;;3.55;100.00;101502.09;10456448;28;20131;-64
2023/12/05 05:35:29;;;;;;;7.07;5.10;;;;;;;3.55;100.00;101504.72;10456847;28;20072;-64
2023/12/05 05:40:29;;;;;;;8.25;5.82;;;;;;;3.70;100.00;101502.94;10456591;28;20440;-65
2023/12/05 05:45:30;;;;;;;6.13;4.38;;;;;;;3.39;100.00;101435.69;10456632;28;20045;-65
2023/12/05 05:50:31;;;;;;;9.55;6.45;;;;;;;3.62;100.00;101463.13;10455062;28;20033;-65
2023/12/05 05:55:32;;;;;;;8.23;5.93;;;;;;;3.96;100.00;101513.63;10455963;28;20067;-65
2023/12/05 06:00:33;;;;;;;7.63;5.35;;;;;;;3.52;100.00;101473.38;10455793;28;20040;-64
2023/12/05 06:05:33;;;;;;;9.77;7.00;;;;;;;3.89;100.00;101526.31;10454486;28;20075;-65
2023/12/05 06:10:35;;;;;;;7.75;5.25;;;;;;;3.96;100.00;101535.47;10455275;28;20452;-64
2023/12/05 06:15:36;;;;;;;14.02;9.68;;;;;;;3.65;100.00;101482.22;10453983;28;20102;-64
2023/12/05 06:20:36;;;;;;;9.23;6.00;;;;;;;4.03;100.00;101534.16;10454553;28;20037;-65
2023/12/05 06:25:39;;;;;;;8.75;5.80;;;;;;;4.08;100.00;101552.28;10455523;28;20064;-66
2023/12/05 06:30:39;;;;;;;8.80;5.80;;;;;;;4.27;100.00;101549.31;10453374;28;20558;-65
2023/12/05 06:35:42;;;;;;;8.73;5.43;;;;;;;4.23;100.00;101542.56;10453977;28;20102;-65
2023/12/05 06:40:42;;;;;;;6.38;4.53;;;;;;;4.11;100.00;101536.31;10454751;28;20049;-65
2023/12/05 06:45:43;;;;;;;7.47;5.60;;;;;;;4.29;100.00;101568.47;10454567;28;20041;-65
2023/12/05 06:50:46;;;;;;;8.20;5.30;;;;;;;4.27;100.00;101588.78;10454547;28;20048;-66
2023/12/05 06:55:48;;;;;;;7.82;5.85;;;;;;;3.97;100.00;101538.94;10453878;28;20480;-65
2023/12/05 07:00:49;;;;;;;15.52;9.80;;;;;;;3.97;100.00;101545.03;10454291;28;20033;-65
2023/12/05 07:05:49;;;;;;;7.38;5.20;;;;;;;4.20;100.00;101590.94;10454170;28;20060;-65
2023/12/05 07:10:50;;;;;;;5.90;4.40;;;;;;;4.09;100.00;101585.50;10459546;28;20127;-65
2023/12/05 07:15:51;;;;;;;6.80;4.88;;;;;;;4.23;100.00;101597.81;10460597;28;20106;-65
2023/12/05 07:20:52;;;;;;;6.13;4.32;;;;;;;4.31;100.00;101599.03;10460852;28;20091;-66
2023/12/05 07:25:54;;;;;;;8.00;5.20;;;;;;;4.48;100.00;101595.31;10461208;28;20060;-65
2023/12/05 07:30:55;;;;;;;5.47;3.58;;;;;;;4.12;99.93;101551.13;10461229;28;20079;-65
2023/12/05 07:35:57;;;;;;;4.97;3.80;;;;;;;3.94;99.67;101533.88;10461103;28;20091;-65
2023/12/05 07:40:58;;;;;;;5.38;3.70;;;;;;;4.30;98.84;101599.09;10460000;28;20127;-65
2023/12/05 07:45:59;;;;;;;8.40;4.53;;;;;;;4.07;98.91;101548.81;10460501;28;20174;-65
2023/12/05 07:50:59;;;;;;;5.00;3.60;;;;;;;4.04;98.42;101553.41;10461128;28;20037;-65
2023/12/05 07:56:00;;;;;;;7.05;4.97;;;;;;;4.14;98.35;101580.81;10460882;28;20049;-67
2023/12/05 08:01:01;;;;;;;5.63;3.35;;;;;;;4.19;98.94;101601.56;10460721;28;20534;-66
2023/12/05 08:06:02;;;;;;;5.80;3.50;;;;;;;4.23;98.63;101600.44;10459762;28;20412;-65
2023/12/05 08:11:03;;;;;;;4.97;3.60;;;;;;;4.14;98.17;101606.28;10460154;28;20527;-66
2023/12/05 08:16:05;;;;;;;4.50;3.00;;;;;;;4.05;97.90;101571.72;10459876;28;20099;-65
2023/12/05 08:21:06;;;;;;;4.22;3.10;;;;;;;4.12;97.98;101557.22;10456968;28;20048;-64
2023/12/05 08:26:07;;;;;;;4.95;3.20;;;;;;;4.38;97.65;101560.00;10458280;28;20488;-64
2023/12/05 08:31:08;;;;;;;4.22;2.80;;;;;;;4.15;97.21;101514.13;10458833;28;20099;-65
2023/12/05 08:36:09;;;;;;;3.75;2.53;;;;;;;4.44;96.89;101550.88;10458679;28;20519;-65
2023/12/05 08:41:17;;;;;;;4.32;2.40;;;;;;;4.43;95.90;101534.25;10458289;28;20447;-65
2023/12/05 08:46:18;;;;;;;5.20;2.67;;;;;;;4.47;96.61;101537.53;10459126;28;20045;-65
2023/12/05 08:51:19;;;;;;;3.47;2.17;;;;;;;4.47;95.88;101543.63;10458676;28;20033;-64
2023/12/05 08:56:20;;;;;;;3.70;2.53;;;;;;;4.24;95.96;101528.47;10457968;28;20071;-65
2023/12/05 09:01:23;;;;;;;3.90;2.50;;;;;;;4.28;96.53;101535.25;10458288;28;20128;-65
2023/12/05 09:06:24;;;;;;;3.75;2.42;;;;;;;4.28;96.34;101538.72;10458431;28;20069;-65
2023/12/05 09:11:24;;;;;;;6.57;2.78;;;;;;;4.17;95.62;101535.06;10457349;28;20079;-65
2023/12/05 09:16:25;;;;;;;4.40;2.75;;;;;;;3.98;96.09;101519.59;10458168;28;20492;-65
2023/12/05 09:21:26;;;;;;;4.90;3.00;;;;;;;3.73;96.37;101465.94;10457841;28;20060;-65
2023/12/05 09:26:27;;;;;;;6.20;3.80;;;;;;;4.08;95.90;101512.84;10456993;28;20072;-65
2023/12/05 09:31:27;;;;;;;5.82;4.05;;;;;;;3.92;96.25;101502.44;10456729;28;20527;-65
2023/12/05 09:36:30;;;;;;;7.13;4.90;;;;;;;3.50;96.15;101453.38;10456967;28;20073;-65
2023/12/05 09:41:38;;;;;;;6.10;4.13;;;;;;;3.59;96.50;101510.63;10456766;28;20047;-65
2023/12/05 09:46:45;;;;;;;4.55;3.53;;;;;;;3.82;96.94;101532.88;10455752;28;20040;-66
2023/12/05 09:51:48;;;;;;;5.40;3.63;;;;;;;3.87;96.57;101531.63;10456618;28;20037;-66
2023/12/05 09:56:50;;;;;;;8.67;3.37;;;;;;;3.47;95.65;101464.97;10456494;28;20048;-65
2023/12/05 10:01:55;;;;;;;4.43;3.03;;;;;;;3.79;95.82;101496.25;10455889;28;20049;-65
2023/12/05 10:06:58;;;;;;;5.65;3.55;;;;;;;4.28;95.06;101545.75;10455549;28;20039;-65
2023/12/05 10:11:59;;;;;;;5.47;3.58;;;;;;;4.23;94.27;101542.56;10454819;28;20045;-66
2023/12/05 10:17:02;;;;;;;6.05;4.47;;;;;;;4.12;94.93;101541.44;10455682;28;20041;-65
2023/12/05 10:22:03;;;;;;;7.57;4.68;;;;;;;4.03;94.68;101551.72;10453798;28;20061;-65
2023/12/05 10:27:06;;;;;;;6.47;3.65;;;;;;;4.09;94.45;101561.84;10454537;28;20041;-66
2023/12/05 10:32:08;;;;;;;4.57;3.25;;;;;;;4.11;94.10;101573.13;10454773;28;20385;-65
2023/12/05 10:37:10;;;;;;;3.80;2.80;;;;;;;4.14;94.15;101566.81;10454523;28;20041;-66
2023/12/05 10:42:12;;;;;;;3.97;2.58;;;;;;;4.03;93.82;101584.09;10454332;28;20082;-65
2023/12/05 10:47:14;;;;;;;3.92;2.80;;;;;;;4.10;94.00;101576.69;10454424;28;20128;-65
2023/12/05 10:52:15;;;;;;;7.28;3.05;;;;;;;4.07;93.40;101588.25;10454930;28;20032;-65
2023/12/05 10:57:16;;;;;;;6.78;4.63;;;;;;;4.08;93.00;101566.25;10452957;28;20048;-65
2023/12/05 11:02:19;;;;;;;5.03;3.45;;;;;;;4.20;92.17;101588.31;10454008;28;20048;-65
2023/12/05 11:07:19;;;;;;;5.30;3.50;;;;;;;4.22;91.95;101577.69;10454340;28;20423;-65
2023/12/05 11:12:20;;;;;;;5.93;3.50;;;;;;;4.24;91.98;101575.81;10454490;28;20033;-65
2023/12/05 11:17:28;;;;;;;6.45;4.00;;;;;;;4.22;91.59;101557.50;10453264;28;20048;-65
2023/12/05 11:22:50;;;;;;;8.23;4.45;;;;;;;4.24;91.06;101567.94;10453616;28;20060;-65
2023/12/05 11:28:10;;;;;;;5.75;3.63;;;;;;;4.26;90.02;101571.31;10453700;28;20091;-65
2023/12/05 11:33:23;;;;;;;5.07;3.28;;;;;;;3.81;90.97;101508.38;10453752;28;20124;-65
2023/12/05 11:38:25;;;;;;;5.25;3.70;;;;;;;4.20;91.89;101569.91;10453008;28;20052;-65
2023/12/05 11:43:26;;;;;;;5.85;3.75;;;;;;;4.10;91.69;101545.16;10451448;28;20523;-65
2023/12/05 11:48:27;;;;;;;5.32;3.60;;;;;;;4.11;91.51;101559.97;10453336;28;20041;-65
2023/12/05 11:53:29;;;;;;;5.65;3.30;;;;;;;4.06;91.32;101562.88;10453327;28;20029;-65
2023/12/05 11:58:34;;;;;;;7.75;4.90;;;;;;;3.97;90.96;101559.97;10461191;28;20033;-65
2023/12/05 12:03:48;;;;;;;6.97;3.90;;;;;;;4.06;91.03;101567.28;10460359;28;20037;-65
2023/12/05 12:08:53;;;;;;;7.10;3.90;;;;;;;3.99;91.73;101564.22;10458982;28;20124;-65
2023/12/05 12:13:54;;;;;;;6.25;3.83;;;;;;;3.99;91.50;101569.47;10458853;28;20075;-66
2023/12/05 12:19:01;;;;;;;9.43;5.30;;;;;;;3.73;90.98;101538.69;10459011;28;20573;-65
2023/12/05 12:24:03;;;;;;;9.02;5.97;;;;;;;3.99;91.42;101593.13;10459665;28;20076;-65
2023/12/05 12:29:07;;;;;;;9.88;5.57;;;;;;;4.03;91.38;101597.25;10459112;28;20091;-66
2023/12/05 12:34:19;;;;;;;8.10;4.60;;;;;;;3.97;91.55;101584.47;10456323;28;20104;-65
2023/12/05 12:39:21;;;;;;;12.35;4.57;;;;;;;3.94;91.16;101582.03;10429679;28;20138;-65
2023/12/05 12:44:22;;;;;;;5.88;4.13;;;;;;;4.00;91.37;101599.22;10440536;28;20119;-65
2023/12/05 12:49:24;;;;;;;6.40;4.00;;;;;;;4.02;91.41;101603.47;10443957;28;20132;-64
2023/12/05 12:54:25;;;;;;;8.05;4.40;;;;;;;3.96;90.82;101598.59;10418294;28;20405;-65
2023/12/05 12:59:26;;;;;;;7.18;4.70;;;;;;;3.81;91.06;101600.38;10389910;28;20038;-65
2023/12/05 13:04:33;;;;;;;12.73;6.03;;;;;;;3.83;91.07;101597.66;10434603;28;20508;-66
2023/12/05 13:09:34;;;;;;;12.77;5.38;;;;;;;3.46;90.73;101551.72;10457702;28;20041;-65
2023/12/05 13:14:36;;;;;;;8.13;4.72;;;;;;;3.48;90.72;101548.06;10457137;28;20127;-66
2023/12/05 13:19:38;;;;;;;7.90;4.30;;;;;;;3.88;91.44;101627.13;10455524;28;20044;-66
2023/12/05 13:24:38;;;;;;;9.93;5.63;;;;;;;3.94;91.25;101620.63;10456914;28;20060;-65
2023/12/05 13:29:39;;;;;;;15.93;4.47;;;;;;;3.96;91.70;101624.88;10456566;28;20041;-67
2023/12/05 13:34:40;;;;;;;14.10;8.23;;;;;;;3.90;91.35;101622.63;10444967;28;20123;-66
2023/12/05 13:39:41;;;;;;;16.33;8.95;;;;;;;3.81;91.92;101624.03;10456887;28;20042;-65
2023/12/05 13:44:43;;;;;;;24.40;14.30;;;;;;;3.44;91.95;101554.47;10405667;28;20041;-65
2023/12/05 13:49:43;;;;;;;15.70;9.38;;;;;;;3.67;91.92;101616.97;10409809;28;20045;-65
2023/12/05 13:54:46;;;;;;;14.20;11.85;;;;;;;3.27;91.70;101554.63;10413272;28;20748;-65
2023/12/05 13:59:46;;;;;;;12.52;7.53;;;;;;;3.20;92.10;101562.00;10396822;28;20140;-68
2023/12/05 14:04:47;;;;;;;14.02;8.38;;;;;;;3.38;92.42;101605.56;10396145;28;20048;-66
2023/12/05 14:09:48;;;;;;;8.98;5.60;;;;;;;3.04;92.65;101583.06;10393767;28;20038;-66
2023/12/05 14:14:49;;;;;;;8.57;5.53;;;;;;;3.05;93.26;101613.66;10404815;28;20049;-65
2023/12/05 14:19:50;;;;;;;10.10;5.85;;;;;;;2.70;93.36;101550.06;10416389;28;20040;-65
2023/12/05 14:24:51;;;;;;;8.27;4.78;;;;;;;2.36;93.86;101517.00;10413736;28;20057;-66
2023/12/05 14:29:52;;;;;;;8.68;6.18;;;;;;;2.95;94.13;101620.34;10451001;28;20045;-65
2023/12/05 14:34:53;;;;;;;9.80;6.38;;;;;;;2.99;94.73;101621.84;10455461;28;20493;-66
2023/12/05 14:39:54;;;;;;;10.30;6.75;;;;;;;2.96;95.12;101622.03;10454845;28;20124;-65
2023/12/05 14:44:54;;;;;;;11.43;7.03;;;;;;;2.90;94.93;101622.38;10453945;28;20041;-66
2023/12/05 14:49:55;;;;;;;13.63;7.38;;;;;;;2.82;94.99;101619.34;10453869;28;20040;-66
2023/12/05 14:54:56;;;;;;;26.23;13.90;;;;;;;2.81;95.79;101615.84;10454503;28;20519;-65
2023/12/05 14:59:57;;;;;;;19.42;10.93;;;;;;;2.88;96.39;101626.88;10453879;28;20043;-66
2023/12/05 15:04:57;;;;;;;24.05;11.63;;;;;;;2.83;96.30;101634.16;10453591;28;20036;-66
2023/12/05 15:09:58;;;;;;;14.98;8.60;;;;;;;2.68;96.61;101628.84;10453480;28;20041;-65
2023/12/05 15:14:59;;;;;;;9.43;5.50;;;;;;;2.54;96.83;101618.25;10453863;28;20037;-66
2023/12/05 15:20:00;;;;;;;8.73;5.50;;;;;;;2.47;97.02;101624.78;10454106;28;20094;-66
2023/12/05 15:25:01;;;;;;;12.43;8.38;;;;;;;2.52;97.96;101625.38;10450103;28;20053;-66
2023/12/05 15:30:05;;;;;;;15.27;9.30;;;;;;;2.47;97.53;101614.28;10448154;28;20497;-65
2023/12/05 15:35:06;;;;;;;13.93;8.60;;;;;;;2.54;97.34;101620.88;10460986;28;20041;-65
2023/12/05 15:40:10;;;;;;;11.50;6.70;;;;;;;2.66;97.17;101638.59;10461880;28;20036;-65
2023/12/05 15:45:15;;;;;;;15.02;5.57;;;;;;;2.68;97.15;101634.09;10448553;28;20041;-65
2023/12/05 15:50:16;;;;;;;9.70;4.90;;;;;;;2.57;96.49;101623.34;10461113;28;20500;-66
2023/12/05 15:55:17;;;;;;;12.05;5.68;;;;;;;2.48;96.93;101618.59;10460757;28;20053;-65
2023/12/05 16:00:18;;;;;;;11.00;5.95;;;;;;;2.22;97.16;101573.69;10461216;28;20131;-65
2023/12/05 16:05:19;;;;;;;10.10;6.22;;;;;;;2.41;96.91;101609.38;10460847;28;20047;-66
2023/12/05 16:10:20;;;;;;;8.85;5.07;;;;;;;2.35;97.05;101610.56;10460434;28;20040;-65
2023/12/05 16:15:21;;;;;;;7.80;4.60;;;;;;;1.63;97.30;101516.66;10459504;28;20044;-65
2023/12/05 16:20:22;;;;;;;7.05;4.65;;;;;;;1.48;97.72;101520.91;10454764;28;20037;-65
2023/12/05 16:25:22;;;;;;;8.45;5.18;;;;;;;1.97;98.00;101623.94;10456148;28;20136;-66
2023/12/05 16:30:24;;;;;;;6.65;4.57;;;;;;;1.78;98.66;101616.22;10445312;28;20049;-66
2023/12/05 16:35:25;;;;;;;10.40;5.82;;;;;;;1.67;98.80;101609.84;10417783;28;20037;-66
2023/12/05 16:40:26;;;;;;;8.55;6.40;;;;;;;1.69;99.24;101616.69;10443657;28;20048;-66
2023/12/05 16:45:27;;;;;;;10.10;6.03;;;;;;;1.40;99.44;101585.91;10459095;28;20068;-67
2023/12/05 16:50:28;;;;;;;11.40;6.43;;;;;;;1.30;99.33;101565.44;10458516;28;20416;-66
2023/12/05 16:55:29;;;;;;;12.65;5.97;;;;;;;1.36;99.48;101562.50;10431079;28;20128;-67
2023/12/05 17:00:30;;;;;;;13.88;9.23;;;;;;;1.67;99.93;101601.97;10409881;28;20540;-66
2023/12/05 17:05:32;;;;;;;13.80;9.30;;;;;;;1.56;99.63;101594.69;10410064;28;20171;-67
2023/12/05 17:10:33;;;;;;;16.70;10.02;;;;;;;1.35;99.60;101557.38;10401579;28;20052;-67
2023/12/05 17:15:34;;;;;;;17.58;10.57;;;;;;;1.60;99.67;101590.97;10438890;28;20056;-66
2023/12/05 17:20:35;;;;;;;12.73;8.52;;;;;;;1.55;99.79;101585.13;10451620;28;20052;-66
2023/12/05 17:25:36;;;;;;;12.00;7.57;;;;;;;1.44;99.88;101577.00;10451773;28;20063;-67
2023/12/05 17:30:37;;;;;;;15.85;9.75;;;;;;;1.04;100.00;101517.03;10457089;28;20036;-66
2023/12/05 17:35:38;;;;;;;10.43;7.10;;;;;;;1.31;100.00;101577.59;10455635;28;20503;-66
2023/12/05 17:40:39;;;;;;;10.30;7.57;;;;;;;1.32;100.00;101570.63;10457281;28;20504;-67
2023/12/05 17:45:40;;;;;;;11.80;6.95;;;;;;;1.25;100.00;101561.38;10456674;28;20048;-66
2023/12/05 17:50:41;;;;;;;13.73;8.13;;;;;;;0.89;100.00;101499.50;10456570;28;20393;-68
2023/12/05 17:55:42;;;;;;;13.88;8.48;;;;;;;1.19;100.00;101541.59;10442600;28;20067;-66
2023/12/05 18:00:43;;;;;;;12.00;8.05;;;;;;;1.33;100.00;101553.97;10454466;28;20052;-67
2023/12/05 18:05:44;;;;;;;11.98;7.13;;;;;;;1.23;100.00;101534.44;10456637;28;20040;-67
2023/12/05 18:10:45;;;;;;;12.75;7.90;;;;;;;0.86;100.00;101471.72;10455407;28;20064;-67
2023/12/05 18:15:45;;;;;;;12.00;8.65;;;;;;;1.06;100.00;101527.44;10455626;28;20047;-66
2023/12/05 18:20:47;;;;;;;13.90;9.30;;;;;;;1.05;100.00;101510.91;10454658;28;20041;-66
2023/12/05 18:25:48;;;;;;;15.43;8.73;;;;;;;1.16;100.00;101538.28;10455627;28;20106;-66
2023/12/05 18:30:48;;;;;;;14.07;9.75;;;;;;;1.16;100.00;101533.88;10454536;28;20578;-66
2023/12/05 18:35:49;;;;;;;14.18;10.07;;;;;;;1.15;100.00;101540.06;10454663;28;20122;-66
2023/12/05 18:40:51;;;;;;;16.15;10.10;;;;;;;1.01;100.00;101545.97;10454202;28;20119;-66
2023/12/05 18:45:52;;;;;;;18.80;11.18;;;;;;;0.98;100.00;101546.13;10455231;28;20080;-66
2023/12/05 18:50:53;;;;;;;17.92;11.15;;;;;;;0.88;100.00;101518.75;10454903;28;20114;-66
2023/12/05 18:55:55;;;;;;;16.45;10.70;;;;;;;0.73;100.00;101472.44;10454834;28;20113;-66
2023/12/05 19:00:57;;;;;;;16.23;11.25;;;;;;;0.49;100.00;101454.44;10453767;28;20068;-66
2023/12/05 19:05:58;;;;;;;16.58;11.10;;;;;;;0.58;100.00;101460.97;10438066;28;20098;-66
2023/12/05 19:11:04;;;;;;;15.05;9.43;;;;;;;0.82;100.00;101519.91;10461569;28;20714;-66
2023/12/05 19:16:05;;;;;;;16.55;11.65;;;;;;;0.75;100.00;101520.25;10462653;28;20052;-66
2023/12/05 19:21:06;;;;;;;20.17;9.35;;;;;;;0.71;100.00;101513.50;10462544;28;20037;-67
2023/12/05 19:26:07;;;;;;;16.30;10.73;;;;;;;0.31;100.00;101455.34;10460328;28;20084;-66
2023/12/05 19:31:08;;;;;;;13.18;8.50;;;;;;;0.55;100.00;101500.34;10461306;28;20041;-66
2023/12/05 19:36:09;;;;;;;18.92;10.73;;;;;;;0.64;100.00;101523.44;10461624;28;20507;-66
2023/12/05 19:41:10;;;;;;;16.83;10.98;;;;;;;0.57;100.00;101529.84;10462437;28;20055;-68
2023/12/05 19:46:10;;;;;;;15.73;8.98;;;;;;;0.56;100.00;101525.56;10461513;28;20519;-66
2023/12/05 19:51:11;;;;;;;16.23;10.45;;;;;;;0.35;100.00;101498.69;10459438;28;20072;-66
2023/12/05 19:56:14;;;;;;;17.13;10.75;;;;;;;0.50;100.00;101525.88;10461107;28;20049;-66
2023/12/05 20:01:15;;;;;;;17.02;10.10;;;;;;;0.34;100.00;101516.16;10460991;28;20041;-66
2023/12/05 20:06:16;;;;;;;17.50;8.75;;;;;;;0.28;100.00;101518.22;10460971;28;20052;-66
2023/12/05 20:11:17;;;;;;;16.08;8.80;;;;;;;0.20;100.00;101515.94;10459807;28;20067;-66
2023/12/05 20:16:18;;;;;;;21.33;12.85;;;;;;;0.29;100.00;101520.75;10459685;28;20049;-66
2023/12/05 20:21:19;;;;;;;20.42;12.07;;;;;;;0.35;100.00;101517.00;10459261;28;20061;-66
2023/12/05 20:26:21;;;;;;;17.83;11.98;;;;;;;0.35;100.00;101501.31;10460109;28;20500;-66
2023/12/05 20:31:22;;;;;;;20.25;12.43;;;;;;;0.37;100.00;101491.63;10457823;28;20044;-66
2023/12/05 20:36:23;;;;;;;21.60;11.70;;;;;;;0.32;100.00;101486.63;10458736;28;20045;-66
2023/12/05 20:41:24;;;;;;;21.75;11.75;;;;;;;-0.01;100.00;101440.28;10459180;28;20040;-66
2023/12/05 20:46:24;;;;;;;22.20;12.15;;;;;;;0.25;100.00;101487.84;10451777;28;20501;-66
2023/12/05 20:51:25;;;;;;;19.60;10.32;;;;;;;0.21;100.00;101497.59;10424144;28;20048;-66
2023/12/05 20:56:26;;;;;;;16.15;7.82;;;;;;;0.27;100.00;101501.69;10417427;28;20045;-66
2023/12/05 21:01:27;;;;;;;19.42;10.82;;;;;;;-0.08;100.00;101443.28;10417725;28;20140;-66
2023/12/05 21:06:28;;;;;;;19.48;10.13;;;;;;;0.11;100.00;101475.44;10416745;28;20068;-67
2023/12/05 21:11:29;;;;;;;20.35;9.45;;;;;;;0.30;100.00;101487.59;10416982;28;20044;-66
2023/12/05 21:16:29;;;;;;;15.48;9.98;;;;;;;0.16;100.00;101480.44;10416520;28;20045;-66
2023/12/05 21:21:30;;;;;;;16.83;9.88;;;;;;;0.22;100.00;101472.31;10416717;28;20050;-66
2023/12/05 21:26:31;;;;;;;18.17;10.45;;;;;;;0.01;100.00;101479.41;10415911;28;20049;-67
2023/12/05 21:31:32;;;;;;;17.40;9.45;;;;;;;0.15;100.00;101494.41;10415154;28;20505;-66
2023/12/05 21:36:32;;;;;;;18.90;10.40;;;;;;;0.05;100.00;101459.19;10413993;28;20049;-66
2023/12/05 21:41:33;;;;;;;15.52;9.25;;;;;;;0.27;100.00;101490.38;10415238;28;20049;-66
2023/12/05 21:46:35;;;;;;;13.40;8.02;;;;;;;0.14;100.00;101482.28;10414976;28;20061;-66
2023/12/05 21:51:36;;;;;;;17.55;9.98;;;;;;;-0.02;100.00;101475.16;10415060;28;20129;-66
2023/12/05 21:56:37;;;;;;;13.30;8.25;;;;;;;0.06;100.00;101474.81;10415028;28;20109;-66
2023/12/05 22:01:37;;;;;;;14.85;8.60;;;;;;;0.02;100.00;101472.41;10414415;28;20048;-66
2023/12/05 22:06:39;;;;;;;18.08;10.35;;;;;;;-0.04;100.00;101469.16;10414267;28;20083;-65
2023/12/05 22:11:40;;;;;;;15.57;10.27;;;;;;;-0.02;100.00;101453.44;10414475;28;20103;-65
2023/12/05 22:16:40;;;;;;;13.63;9.00;;;;;;;0.13;100.00;101463.16;10413686;28;20501;-65
2023/12/05 22:21:42;;;;;;;15.90;9.63;;;;;;;0.01;100.00;101460.28;10413974;28;20068;-65
2023/12/05 22:26:43;;;;;;;18.50;10.52;;;;;;;0.07;100.00;101473.03;10413403;28;20528;-65
2023/12/05 22:31:44;;;;;;;18.13;9.68;;;;;;;0.05;100.00;101478.31;10413204;28;20127;-65
2023/12/05 22:36:45;;;;;;;17.83;10.45;;;;;;;-0.09;100.00;101441.56;10414084;28;20041;-65
2023/12/05 22:41:45;;;;;;;14.43;9.27;;;;;;;0.11;100.00;101490.25;10417555;28;20413;-65
2023/12/05 22:46:46;;;;;;;17.73;10.05;;;;;;;0.05;100.00;101494.00;10445325;28;20040;-65
2023/12/05 22:51:47;;;;;;;17.95;9.38;;;;;;;0.12;100.00;101486.72;10453965;28;20079;-65
2023/12/05 22:56:48;;;;;;;18.33;10.68;;;;;;;0.06;100.00;101490.50;10454365;28;20051;-66
2023/12/05 23:01:48;;;;;;;17.52;10.43;;;;;;;-0.22;100.00;101430.84;10454348;28;20040;-65